Time;durP1;ratioP1;P1;durP2;ratioP2;P2;SDS_P1;SDS_P2;PMS_P1;PMS_P2;Temp;Humidity;BMP_temperature;BMP_pressure;BME280_temperature;BME280_humidity;BME280_pressure;Samples;Min_cycle;Max_cycle;Signal;HPM_P1;HPM_P2
2022/10/27 00:00:50;;;;;;;4.38;2.60;;;16.10;99.90;;;;;;4135244;28;20038;-64
2022/10/27 00:02:51;;;;;;;5.20;2.22;;;16.10;99.90;;;;;;4138166;28;20131;-65
2022/10/27 00:04:51;;;;;;;4.57;1.83;;;16.10;99.90;;;;;;4149578;28;20117;-63
2022/10/27 00:06:52;;;;;;;5.22;2.20;;;16.10;99.90;;;;;;4135013;28;20030;-64
2022/10/27 00:08:53;;;;;;;3.45;1.83;;;16.10;99.90;;;;;;4142912;28;20030;-64
2022/10/27 00:10:58;;;;;;;4.22;2.08;;;16.10;99.90;;;;;;4137833;28;20526;-64
2022/10/27 00:12:59;;;;;;;4.15;1.90;;;16.10;99.90;;;;;;4142630;28;20099;-64
2022/10/27 00:14:59;;;;;;;4.20;1.75;;;16.10;99.90;;;;;;4149197;28;20054;-64
2022/10/27 00:17:00;;;;;;;4.18;2.00;;;16.10;99.90;;;;;;4131414;28;20578;-64
2022/10/27 00:19:01;;;;;;;3.63;2.10;;;16.10;99.90;;;;;;4137087;28;20033;-65
2022/10/27 00:21:10;;;;;;;4.25;1.90;;;16.10;99.90;;;;;;4137396;28;20034;-64
2022/10/27 00:23:11;;;;;;;4.45;2.00;;;16.10;99.90;;;;;;4131736;28;20030;-64
2022/10/27 00:25:11;;;;;;;3.95;1.90;;;16.00;99.90;;;;;;4133477;28;20031;-64
2022/10/27 00:27:12;;;;;;;4.20;2.08;;;16.00;99.90;;;;;;4143474;28;20510;-64
2022/10/27 00:29:13;;;;;;;3.78;2.15;;;16.10;99.90;;;;;;4141794;28;20064;-64
2022/10/27 00:31:19;;;;;;;6.03;2.30;;;16.00;99.90;;;;;;4135463;28;20038;-64
2022/10/27 00:33:19;;;;;;;3.75;2.20;;;16.00;99.90;;;;;;4130842;28;20627;-67
2022/10/27 00:35:20;;;;;;;3.15;2.08;;;16.00;99.90;;;;;;4135225;28;20042;-63
2022/10/27 00:37:21;;;;;;;4.97;2.10;;;16.00;99.90;;;;;;4139321;28;20037;-64
2022/10/27 00:39:21;;;;;;;4.18;2.13;;;16.00;99.90;;;;;;4134330;28;20123;-64
2022/10/27 00:41:34;;;;;;;4.20;2.00;;;16.00;99.90;;;;;;4132986;28;20060;-64
2022/10/27 00:43:38;;;;;;;5.97;2.28;;;16.00;99.90;;;;;;4139504;28;20049;-65
2022/10/27 00:45:38;;;;;;;8.85;2.63;;;15.90;99.90;;;;;;4114565;28;20067;-67
2022/10/27 00:47:39;;;;;;;6.25;2.65;;;15.90;99.90;;;;;;4131027;28;20702;-64
2022/10/27 00:50:11;;;;;;;5.63;2.42;;;15.90;99.90;;;;;;4156420;28;20022;-64
2022/10/27 00:52:32;;;;;;;4.05;2.40;;;15.90;99.90;;;;;;4137350;28;20037;-65
2022/10/27 00:54:37;;;;;;;6.07;2.47;;;15.90;99.90;;;;;;4146860;28;20041;-65
2022/10/27 00:56:38;;;;;;;13.00;2.92;;;15.80;99.90;;;;;;4146882;28;20040;-70
2022/10/27 00:58:39;;;;;;;5.10;2.63;;;15.80;99.90;;;;;;4148656;28;20105;-66
2022/10/27 01:00:42;;;;;;;9.75;2.97;;;15.70;99.90;;;;;;4147709;28;20054;-64
2022/10/27 01:02:43;;;;;;;6.57;2.63;;;15.70;99.90;;;;;;4149162;28;20042;-63
2022/10/27 01:05:10;;;;;;;5.88;2.03;;;15.70;99.90;;;;;;4161431;28;20034;-64
2022/10/27 01:07:13;;;;;;;4.78;2.22;;;15.70;99.90;;;;;;4131070;28;20117;-64
2022/10/27 01:09:14;;;;;;;7.05;2.42;;;15.70;99.90;;;;;;4137096;28;20030;-64
2022/10/27 01:11:14;;;;;;;4.38;2.15;;;15.70;99.90;;;;;;4158880;28;20095;-65
2022/10/27 01:13:16;;;;;;;3.55;2.10;;;15.70;99.90;;;;;;4147480;28;20075;-66
2022/10/27 01:15:16;;;;;;;4.43;2.20;;;15.70;99.90;;;;;;4149340;28;20053;-64
2022/10/27 01:17:35;;;;;;;4.65;2.47;;;15.70;99.90;;;;;;4147494;28;20411;-64
2022/10/27 01:20:02;;;;;;;3.83;2.42;;;15.70;99.90;;;;;;4148627;28;20483;-64
2022/10/27 01:22:33;;;;;;;7.90;2.72;;;15.70;99.90;;;;;;4144535;28;20487;-64
2022/10/27 01:24:55;;;;;;;4.85;2.22;;;15.70;99.90;;;;;;4141015;28;20045;-64
2022/10/27 01:27:04;;;;;;;4.32;1.80;;;15.70;99.90;;;;;;4152668;28;20419;-66
2022/10/27 01:29:25;;;;;;;4.65;2.30;;;15.70;99.90;;;;;;4143537;28;20041;-64
2022/10/27 01:31:41;;;;;;;4.13;2.22;;;15.70;99.90;;;;;;4150181;28;20025;-64
2022/10/27 01:34:08;;;;;;;4.65;2.70;;;15.60;99.90;;;;;;4151388;28;20373;-64
2022/10/27 01:36:38;;;;;;;3.67;2.15;;;15.70;99.90;;;;;;4161641;28;20038;-63
2022/10/27 01:38:57;;;;;;;4.55;2.13;;;15.70;99.90;;;;;;4132920;28;20117;-64
2022/10/27 01:41:04;;;;;;;5.15;2.30;;;15.70;99.90;;;;;;4133428;28;20038;-63
2022/10/27 01:43:13;;;;;;;3.95;2.50;;;15.70;99.90;;;;;;4152462;28;20532;-64
2022/10/27 01:45:26;;;;;;;5.93;2.63;;;15.60;99.90;;;;;;4130276;28;20046;-66
2022/10/27 01:47:27;;;;;;;4.55;2.13;;;15.60;99.90;;;;;;4137833;28;20038;-63
2022/10/27 01:49:38;;;;;;;5.00;2.33;;;15.60;99.90;;;;;;4137168;28;20039;-64
2022/10/27 01:51:39;;;;;;;5.00;2.35;;;15.60;99.90;;;;;;4139392;28;20038;-64
2022/10/27 01:53:44;;;;;;;3.75;2.30;;;15.60;99.90;;;;;;4142080;28;20030;-64
2022/10/27 01:55:56;;;;;;;4.82;2.38;;;15.60;99.90;;;;;;4138759;28;20046;-64
2022/10/27 01:58:01;;;;;;;6.43;2.67;;;15.60;99.90;;;;;;4146843;28;20423;-64
2022/10/27 02:00:03;;;;;;;3.33;2.20;;;15.60;99.90;;;;;;4136512;28;20042;-64
2022/10/27 02:02:25;;;;;;;6.23;2.20;;;15.60;99.90;;;;;;4130156;28;20404;-64
2022/10/27 02:04:57;;;;;;;5.45;2.50;;;15.60;99.90;;;;;;4132977;28;20274;-64
2022/10/27 02:07:11;;;;;;;3.78;2.03;;;15.60;99.90;;;;;;4127979;28;20034;-63
2022/10/27 02:09:13;;;;;;;5.03;2.30;;;15.60;99.90;;;;;;4157370;28;20067;-64
2022/10/27 02:11:14;;;;;;;6.82;2.40;;;15.60;99.90;;;;;;4151857;28;20460;-64
2022/10/27 02:13:16;;;;;;;3.20;2.10;;;15.60;99.90;;;;;;4138436;28;20109;-66
2022/10/27 02:15:36;;;;;;;4.43;2.33;;;15.60;99.90;;;;;;4136199;28;20073;-66
2022/10/27 02:17:40;;;;;;;3.90;1.98;;;15.60;99.90;;;;;;4152076;28;20068;-67
2022/10/27 02:19:45;;;;;;;5.80;2.67;;;15.60;99.90;;;;;;4136296;28;20029;-67
2022/10/27 02:21:49;;;;;;;4.63;2.53;;;15.60;99.90;;;;;;4138788;28;20591;-66
2022/10/27 02:23:51;;;;;;;3.83;2.28;;;15.60;99.90;;;;;;4140118;28;20113;-67
2022/10/27 02:26:00;;;;;;;3.90;2.30;;;15.50;99.90;;;;;;4135266;28;20045;-66
2022/10/27 02:28:05;;;;;;;7.10;2.47;;;15.60;99.90;;;;;;4135360;28;20274;-66
2022/10/27 02:30:06;;;;;;;7.20;2.85;;;15.60;99.90;;;;;;4141782;28;20053;-66
2022/10/27 02:32:10;;;;;;;5.28;2.17;;;15.50;99.90;;;;;;4139718;28;20034;-66
2022/10/27 02:34:11;;;;;;;3.17;1.88;;;15.50;99.90;;;;;;4139551;28;20049;-66
2022/10/27 02:36:12;;;;;;;4.25;2.35;;;15.50;99.90;;;;;;4135441;28;20121;-67
2022/10/27 02:38:12;;;;;;;6.85;2.38;;;15.50;99.90;;;;;;4134679;28;20043;-69
2022/10/27 02:40:13;;;;;;;3.97;2.00;;;15.50;99.90;;;;;;4134477;28;20045;-66
2022/10/27 02:42:14;;;;;;;3.45;1.98;;;15.50;99.90;;;;;;4136450;28;20506;-67
2022/10/27 02:44:14;;;;;;;3.85;2.45;;;15.50;99.90;;;;;;4144347;28;20034;-66
2022/10/27 02:46:15;;;;;;;3.55;2.00;;;15.50;99.90;;;;;;4120207;28;20061;-66
2022/10/27 02:48:16;;;;;;;3.17;1.90;;;15.40;99.90;;;;;;4137848;28;20125;-69
2022/10/27 02:50:16;;;;;;;3.92;2.22;;;15.40;99.90;;;;;;4134673;28;20038;-66
2022/10/27 02:52:17;;;;;;;3.17;2.15;;;15.40;99.90;;;;;;4144104;28;20095;-66
2022/10/27 02:54:17;;;;;;;5.72;2.17;;;15.40;99.90;;;;;;4128441;28;20046;-66
2022/10/27 02:56:18;;;;;;;5.65;2.50;;;15.40;99.90;;;;;;4139120;28;20045;-64
2022/10/27 02:58:19;;;;;;;5.30;2.22;;;15.40;99.90;;;;;;4139481;28;20054;-64
2022/10/27 03:00:19;;;;;;;3.38;2.55;;;15.40;99.90;;;;;;4140609;28;20029;-64
2022/10/27 03:02:21;;;;;;;3.92;2.17;;;15.40;99.90;;;;;;4156097;28;20033;-64
2022/10/27 03:04:22;;;;;;;5.55;2.35;;;15.40;99.90;;;;;;4133661;28;20031;-66
2022/10/27 03:06:23;;;;;;;6.15;2.25;;;15.30;99.90;;;;;;4121725;28;20488;-64
2022/10/27 03:08:23;;;;;;;5.80;2.20;;;15.30;99.90;;;;;;4140400;28;20073;-64
2022/10/27 03:10:24;;;;;;;6.43;2.40;;;15.20;99.90;;;;;;4138583;28;20488;-64
2022/10/27 03:12:24;;;;;;;5.05;2.53;;;15.20;99.90;;;;;;4138088;28;20041;-64
2022/10/27 03:14:25;;;;;;;5.43;2.20;;;15.20;99.90;;;;;;4139817;28;20426;-64
2022/10/27 03:16:26;;;;;;;3.90;2.00;;;15.20;99.90;;;;;;4135147;28;20048;-64
2022/10/27 03:18:26;;;;;;;4.35;2.10;;;15.20;99.90;;;;;;4140929;28;20030;-63
2022/10/27 03:20:27;;;;;;;3.60;2.10;;;15.20;99.90;;;;;;4142081;28;20030;-64
2022/10/27 03:22:27;;;;;;;3.85;2.15;;;15.20;99.90;;;;;;4136204;28;20416;-66
2022/10/27 03:24:28;;;;;;;3.45;2.10;;;15.20;99.90;;;;;;4131487;28;20041;-64
2022/10/27 03:26:28;;;;;;;5.15;2.38;;;15.20;99.90;;;;;;4143558;28;20071;-64
2022/10/27 03:28:33;;;;;;;6.13;3.00;;;15.10;99.90;;;;;;4122310;28;20472;-64
2022/10/27 03:30:34;;;;;;;5.97;2.70;;;15.10;99.90;;;;;;4134745;28;20038;-64
2022/10/27 03:32:35;;;;;;;4.45;2.15;;;15.10;99.90;;;;;;4116945;28;20457;-65
2022/10/27 03:34:35;;;;;;;3.72;2.10;;;15.10;99.90;;;;;;4135115;28;20125;-64
2022/10/27 03:36:36;;;;;;;5.15;2.60;;;15.10;99.90;;;;;;4148854;28;20037;-64
2022/10/27 03:38:37;;;;;;;7.15;2.47;;;15.10;99.90;;;;;;4135068;28;20030;-65
2022/10/27 03:40:37;;;;;;;6.13;2.67;;;15.00;99.90;;;;;;4137986;28;20447;-64
2022/10/27 03:42:42;;;;;;;5.60;2.55;;;15.00;99.90;;;;;;4138403;28;20034;-64
2022/10/27 03:44:42;;;;;;;5.30;2.58;;;15.00;99.90;;;;;;4140823;28;20036;-63
2022/10/27 03:46:43;;;;;;;3.78;2.03;;;14.90;99.90;;;;;;4136493;28;20399;-64
2022/10/27 03:48:43;;;;;;;5.63;2.50;;;15.00;99.90;;;;;;4132033;28;20029;-65
2022/10/27 03:50:49;;;;;;;4.47;2.20;;;15.00;99.90;;;;;;4131331;28;20023;-64
2022/10/27 03:52:49;;;;;;;3.42;2.05;;;15.00;99.90;;;;;;4134971;28;20037;-64
2022/10/27 03:54:50;;;;;;;6.93;2.50;;;15.00;99.90;;;;;;4138367;28;20053;-64
2022/10/27 03:56:50;;;;;;;5.60;2.40;;;15.00;99.90;;;;;;4136069;28;20045;-63
2022/10/27 03:58:51;;;;;;;7.35;2.10;;;15.00;99.90;;;;;;4134955;28;20411;-67
2022/10/27 04:00:52;;;;;;;3.58;1.90;;;14.90;99.90;;;;;;4135166;28;20510;-64
2022/10/27 04:02:53;;;;;;;4.15;2.22;;;14.90;99.90;;;;;;4138620;28;20396;-64
2022/10/27 04:04:56;;;;;;;4.30;2.13;;;15.00;99.90;;;;;;4140611;28;20038;-63
2022/10/27 04:06:56;;;;;;;3.80;2.00;;;14.90;99.90;;;;;;4141844;28;20097;-64
2022/10/27 04:08:57;;;;;;;3.15;1.90;;;14.90;99.90;;;;;;4135493;28;20494;-64
2022/10/27 04:10:57;;;;;;;2.55;1.50;;;14.90;99.90;;;;;;4136047;28;20391;-64
2022/10/27 04:12:58;;;;;;;4.95;1.80;;;15.00;99.90;;;;;;4151526;28;20466;-63
2022/10/27 04:14:59;;;;;;;5.28;2.35;;;15.00;99.90;;;;;;4138094;28;20408;-65
2022/10/27 04:16:59;;;;;;;3.80;2.00;;;15.00;99.90;;;;;;4141256;28;20042;-63
2022/10/27 04:19:00;;;;;;;4.68;1.67;;;14.90;99.90;;;;;;4148894;28;22582;-63
2022/10/27 04:21:05;;;;;;;4.03;1.67;;;15.00;99.90;;;;;;4135982;28;20056;-63
2022/10/27 04:23:05;;;;;;;3.90;1.92;;;15.00;99.90;;;;;;4138098;28;20062;-64
2022/10/27 04:25:06;;;;;;;3.55;1.90;;;15.00;99.90;;;;;;4139867;28;20096;-65
2022/10/27 04:27:07;;;;;;;4.20;2.05;;;14.90;99.90;;;;;;4147241;28;20635;-64
2022/10/27 04:29:08;;;;;;;5.40;2.17;;;15.00;99.90;;;;;;4135415;28;20264;-64
2022/10/27 04:31:08;;;;;;;6.03;1.92;;;14.90;99.90;;;;;;4136107;28;20069;-64
2022/10/27 04:33:09;;;;;;;3.47;1.98;;;15.00;99.90;;;;;;4137155;28;20022;-65
2022/10/27 04:35:09;;;;;;;2.45;1.55;;;14.90;99.90;;;;;;4149617;28;20066;-71
2022/10/27 04:37:10;;;;;;;8.15;2.30;;;14.90;99.90;;;;;;4141929;28;20076;-64
2022/10/27 04:39:13;;;;;;;6.00;2.13;;;14.90;99.90;;;;;;4140568;28;20037;-64
2022/10/27 04:41:13;;;;;;;3.00;1.77;;;14.90;99.90;;;;;;4135164;28;20046;-64
2022/10/27 04:43:14;;;;;;;4.75;1.67;;;14.90;99.90;;;;;;4137527;28;20038;-64
2022/10/27 04:45:14;;;;;;;3.67;2.00;;;14.90;99.90;;;;;;4131996;28;20078;-65
2022/10/27 04:47:15;;;;;;;3.55;1.70;;;14.90;99.90;;;;;;4134328;28;20049;-67
2022/10/27 04:49:15;;;;;;;3.60;2.08;;;14.90;99.90;;;;;;4134829;28;20034;-64
2022/10/27 04:51:16;;;;;;;4.95;1.65;;;14.90;99.90;;;;;;4148239;28;20045;-63
2022/10/27 04:53:17;;;;;;;3.63;1.77;;;14.90;99.90;;;;;;4149421;28;20113;-64
2022/10/27 04:55:17;;;;;;;5.55;1.85;;;14.90;99.90;;;;;;4150160;28;20034;-64
2022/10/27 04:57:18;;;;;;;3.00;1.70;;;14.80;99.90;;;;;;4155374;28;20745;-65
2022/10/27 04:59:18;;;;;;;8.10;1.95;;;14.90;99.90;;;;;;4150551;28;20040;-64
2022/10/27 05:01:19;;;;;;;5.22;2.05;;;14.90;99.90;;;;;;4140850;28;20069;-65
2022/10/27 05:03:19;;;;;;;4.82;1.90;;;14.80;99.90;;;;;;4150795;28;20068;-64
2022/10/27 05:05:21;;;;;;;3.88;1.90;;;14.80;99.90;;;;;;4165281;28;20041;-64
2022/10/27 05:07:22;;;;;;;4.13;1.95;;;14.80;99.90;;;;;;4145125;28;20092;-65
2022/10/27 05:09:22;;;;;;;3.55;1.90;;;14.80;99.90;;;;;;4145766;28;20042;-65
2022/10/27 05:11:23;;;;;;;3.50;1.92;;;14.80;99.90;;;;;;4137379;28;20432;-65
2022/10/27 05:13:24;;;;;;;3.97;1.70;;;14.80;99.90;;;;;;4152964;28;20037;-65
2022/10/27 05:15:24;;;;;;;4.20;2.00;;;14.80;99.90;;;;;;4137517;28;20389;-66
2022/10/27 05:17:25;;;;;;;4.63;1.73;;;14.80;99.90;;;;;;4138102;28;20088;-65
2022/10/27 05:19:26;;;;;;;3.72;1.48;;;14.80;99.90;;;;;;4143855;28;20044;-64
2022/10/27 05:21:26;;;;;;;4.00;1.60;;;14.80;99.90;;;;;;4131942;28;20380;-65
2022/10/27 05:23:27;;;;;;;5.75;1.70;;;14.80;99.90;;;;;;4135270;28;20565;-65
2022/10/27 05:25:27;;;;;;;6.18;2.13;;;14.80;99.90;;;;;;4135011;28;20040;-65
2022/10/27 05:27:29;;;;;;;5.75;2.28;;;14.80;99.90;;;;;;4148869;28;20628;-66
2022/10/27 05:29:30;;;;;;;5.30;1.75;;;14.80;99.90;;;;;;4135601;28;20030;-66
2022/10/27 05:31:31;;;;;;;3.17;1.35;;;14.80;99.90;;;;;;4133607;28;20041;-65
2022/10/27 05:33:31;;;;;;;4.93;1.88;;;14.90;99.90;;;;;;4139221;28;20033;-65
2022/10/27 05:35:32;;;;;;;6.68;2.20;;;14.80;99.90;;;;;;4135772;28;20605;-64
2022/10/27 05:37:32;;;;;;;4.57;1.77;;;14.80;99.90;;;;;;4138919;28;20402;-64
2022/10/27 05:39:33;;;;;;;7.70;2.15;;;14.80;99.90;;;;;;4137459;28;20030;-65
2022/10/27 05:41:33;;;;;;;6.13;2.17;;;14.80;99.90;;;;;;4153758;28;20026;-64
2022/10/27 05:43:34;;;;;;;2.33;1.77;;;14.80;99.90;;;;;;4138657;28;20060;-67
2022/10/27 05:45:35;;;;;;;3.20;1.83;;;14.80;99.90;;;;;;4152211;28;20038;-64
2022/10/27 05:47:36;;;;;;;2.80;1.48;;;14.80;99.90;;;;;;4138226;28;20042;-64
2022/10/27 05:49:36;;;;;;;3.78;1.75;;;14.80;99.90;;;;;;4139285;28;20049;-63
2022/10/27 05:51:37;;;;;;;4.18;1.90;;;14.80;99.90;;;;;;4139020;28;20492;-65
2022/10/27 05:53:38;;;;;;;6.65;1.80;;;14.80;99.90;;;;;;4139042;28;20065;-64
2022/10/27 05:55:38;;;;;;;5.65;2.42;;;14.90;99.90;;;;;;4140613;28;20052;-66
2022/10/27 05:57:39;;;;;;;4.75;1.90;;;14.90;99.90;;;;;;4141956;28;20045;-64
2022/10/27 05:59:39;;;;;;;4.55;1.70;;;14.80;99.90;;;;;;4145366;28;20498;-67
2022/10/27 06:01:40;;;;;;;2.42;1.40;;;14.80;99.90;;;;;;4148908;28;20525;-64
2022/10/27 06:03:41;;;;;;;3.38;1.45;;;14.80;99.90;;;;;;4123378;28;20653;-64
2022/10/27 06:05:41;;;;;;;3.70;1.52;;;14.80;99.90;;;;;;4138861;28;20121;-66
2022/10/27 06:07:42;;;;;;;4.43;1.80;;;14.80;99.90;;;;;;4141272;28;20057;-65
2022/10/27 06:09:43;;;;;;;3.55;1.73;;;14.80;99.90;;;;;;4140656;28;20057;-64
2022/10/27 06:11:43;;;;;;;5.72;1.98;;;14.80;99.90;;;;;;4141021;28;20676;-68
2022/10/27 06:13:44;;;;;;;5.53;2.10;;;14.80;99.90;;;;;;4141392;28;20072;-65
2022/10/27 06:15:44;;;;;;;2.72;1.52;;;14.80;99.90;;;;;;4139621;28;20049;-64
2022/10/27 06:17:51;;;;;;;3.92;1.38;;;14.80;99.90;;;;;;4141346;28;20495;-65
2022/10/27 06:19:51;;;;;;;3.90;1.60;;;14.80;99.90;;;;;;4142619;28;20046;-65
2022/10/27 06:21:52;;;;;;;6.07;2.20;;;14.80;99.90;;;;;;4156604;28;20087;-64
2022/10/27 06:23:52;;;;;;;5.78;1.73;;;14.80;99.90;;;;;;4141679;28;20041;-64
2022/10/27 06:25:55;;;;;;;5.10;1.75;;;14.80;99.90;;;;;;4141480;28;20045;-65
2022/10/27 06:27:56;;;;;;;3.42;1.33;;;14.80;99.90;;;;;;4141618;28;20109;-64
2022/10/27 06:29:56;;;;;;;4.68;1.90;;;14.80;99.90;;;;;;4141946;28;20502;-64
2022/10/27 06:31:57;;;;;;;4.38;2.03;;;14.80;99.90;;;;;;4142188;28;20049;-65
2022/10/27 06:33:57;;;;;;;3.97;1.88;;;14.80;99.90;;;;;;4156399;28;20033;-64
2022/10/27 06:35:58;;;;;;;6.78;1.88;;;14.80;99.90;;;;;;4141646;28;20037;-65
2022/10/27 06:37:59;;;;;;;5.53;2.00;;;14.80;99.90;;;;;;4140324;28;20488;-64
2022/10/27 06:39:59;;;;;;;9.25;1.80;;;14.80;99.90;;;;;;4140813;28;20387;-64
2022/10/27 06:42:00;;;;;;;2.28;1.50;;;14.80;99.90;;;;;;4157011;28;20452;-66
2022/10/27 06:44:01;;;;;;;3.20;1.63;;;14.80;99.90;;;;;;4142328;28;20387;-63
2022/10/27 06:46:01;;;;;;;6.63;2.03;;;14.80;99.90;;;;;;4154200;28;20121;-67
2022/10/27 06:48:03;;;;;;;2.58;1.17;;;14.80;99.90;;;;;;4138390;28;20046;-64
2022/10/27 06:50:05;;;;;;;4.60;1.92;;;14.80;99.90;;;;;;4141656;28;20040;-64
2022/10/27 06:52:06;;;;;;;3.58;1.88;;;14.80;99.90;;;;;;4141688;28;20034;-65
2022/10/27 06:54:06;;;;;;;8.07;2.58;;;14.90;99.90;;;;;;4154606;28;20120;-64
2022/10/27 06:56:07;;;;;;;5.00;2.17;;;14.90;99.90;;;;;;4141459;28;20117;-65
2022/10/27 06:58:07;;;;;;;6.72;1.67;;;14.90;99.90;;;;;;4137897;28;20388;-64
2022/10/27 07:00:09;;;;;;;5.72;1.77;;;14.90;99.90;;;;;;4139605;28;20089;-65
2022/10/27 07:02:11;;;;;;;4.15;1.70;;;14.90;99.90;;;;;;4141922;28;20880;-66
2022/10/27 07:04:12;;;;;;;4.93;1.83;;;14.90;99.90;;;;;;4141418;28;20833;-64
2022/10/27 07:06:12;;;;;;;3.95;1.77;;;14.90;99.90;;;;;;4139902;28;20120;-64
2022/10/27 07:08:13;;;;;;;6.50;1.90;;;15.00;99.90;;;;;;4141849;28;20045;-66
2022/10/27 07:10:14;;;;;;;5.22;1.90;;;15.00;99.90;;;;;;4155317;28;20040;-64
2022/10/27 07:12:14;;;;;;;7.93;1.90;;;15.00;99.90;;;;;;4141892;28;20483;-67
2022/10/27 07:14:15;;;;;;;2.55;1.50;;;15.00;99.90;;;;;;4140699;28;20049;-66
2022/10/27 07:16:16;;;;;;;4.15;1.77;;;15.10;99.90;;;;;;4153679;28;20447;-64
2022/10/27 07:18:16;;;;;;;4.80;2.28;;;15.10;99.90;;;;;;4137698;28;20106;-67
2022/10/27 07:20:18;;;;;;;6.13;1.73;;;15.10;99.90;;;;;;4139657;28;20054;-64
2022/10/27 07:22:19;;;;;;;5.25;2.10;;;15.20;99.90;;;;;;4156875;28;20096;-66
2022/10/27 07:24:19;;;;;;;6.00;2.00;;;15.20;99.90;;;;;;4140950;28;20439;-65
2022/10/27 07:26:21;;;;;;;6.63;2.13;;;15.20;99.90;;;;;;4154002;28;20022;-64
2022/10/27 07:28:21;;;;;;;3.00;1.60;;;15.30;99.90;;;;;;4141144;28;20848;-64
2022/10/27 07:30:24;;;;;;;5.18;1.90;;;15.40;99.90;;;;;;4140938;28;20046;-64
2022/10/27 07:32:25;;;;;;;3.42;1.50;;;15.50;99.90;;;;;;4140898;28;20531;-69
2022/10/27 07:34:25;;;;;;;6.63;1.85;;;15.60;99.90;;;;;;4141715;28;20117;-64
2022/10/27 07:36:26;;;;;;;3.47;1.45;;;15.70;99.90;;;;;;4141905;28;20057;-65
2022/10/27 07:38:26;;;;;;;3.83;1.58;;;15.90;99.90;;;;;;4155907;28;20092;-64
2022/10/27 07:40:27;;;;;;;4.18;1.40;;;16.00;99.90;;;;;;4135497;28;20456;-63
2022/10/27 07:42:28;;;;;;;3.80;1.60;;;16.20;99.90;;;;;;4141218;28;20089;-65
2022/10/27 07:44:28;;;;;;;4.68;1.50;;;16.30;99.90;;;;;;4140901;28;20133;-64
2022/10/27 07:46:29;;;;;;;4.15;1.88;;;16.40;99.90;;;;;;4140102;28;20038;-64
2022/10/27 07:48:29;;;;;;;5.80;1.60;;;16.60;99.90;;;;;;4140749;28;20033;-65
2022/10/27 07:50:32;;;;;;;2.47;1.45;;;16.80;99.90;;;;;;4140583;28;20415;-65
2022/10/27 07:52:39;;;;;;;6.05;1.77;;;17.10;99.90;;;;;;4140551;28;20062;-64
2022/10/27 07:54:40;;;;;;;5.15;1.33;;;17.20;99.90;;;;;;4139658;28;20069;-64
2022/10/27 07:56:41;;;;;;;5.65;1.33;;;17.40;99.90;;;;;;4140486;28;20041;-65
2022/10/27 07:58:41;;;;;;;5.25;1.50;;;17.60;99.90;;;;;;4139673;28;20469;-64
2022/10/27 08:00:46;;;;;;;3.53;1.33;;;17.80;99.90;;;;;;4154270;28;20025;-64
2022/10/27 08:02:47;;;;;;;3.75;1.45;;;18.00;99.90;;;;;;4139034;28;20037;-65
2022/10/27 08:04:48;;;;;;;3.10;1.30;;;18.20;99.90;;;;;;4141768;28;20517;-66
2022/10/27 08:06:48;;;;;;;3.17;1.73;;;18.30;99.90;;;;;;4140834;28;20034;-65
2022/10/27 08:08:49;;;;;;;2.50;1.30;;;18.40;99.90;;;;;;4138886;28;20034;-65
2022/10/27 08:10:50;;;;;;;4.15;1.50;;;18.60;99.90;;;;;;4139682;28;20042;-64
2022/10/27 08:12:51;;;;;;;5.45;1.30;;;18.70;99.90;;;;;;4141290;28;20026;-64
2022/10/27 08:14:51;;;;;;;2.85;0.90;;;18.70;99.90;;;;;;4141414;28;20080;-65
2022/10/27 08:16:52;;;;;;;2.25;1.05;;;18.90;99.90;;;;;;4138421;28;20046;-63
2022/10/27 08:18:53;;;;;;;3.42;1.25;;;19.00;99.90;;;;;;4139707;28;20088;-62
2022/10/27 08:20:53;;;;;;;3.00;1.60;;;19.20;99.90;;;;;;4153663;28;20084;-64
2022/10/27 08:22:55;;;;;;;3.60;1.30;;;19.40;99.90;;;;;;4136595;28;20516;-62
2022/10/27 08:24:56;;;;;;;3.58;1.33;;;19.40;99.90;;;;;;4140693;28;20038;-63
2022/10/27 08:26:56;;;;;;;1.70;1.17;;;19.60;99.90;;;;;;4153290;28;20064;-63
2022/10/27 08:28:57;;;;;;;3.08;1.25;;;19.80;99.90;;;;;;4139192;28;20520;-63
2022/10/27 08:30:58;;;;;;;7.97;1.77;;;20.00;99.90;;;;;;4139268;28;20026;-64
2022/10/27 08:33:00;;;;;;;2.72;1.20;;;20.20;99.90;;;;;;4139553;28;20041;-62
2022/10/27 08:35:01;;;;;;;3.80;1.38;;;20.20;99.90;;;;;;4148612;28;20907;-62
2022/10/27 08:37:02;;;;;;;3.25;1.40;;;20.40;99.90;;;;;;4143287;28;20593;-62
2022/10/27 08:39:03;;;;;;;3.13;1.17;;;20.30;99.90;;;;;;4134404;28;20034;-62
2022/10/27 08:41:19;;;;;;;2.10;1.10;;;20.40;99.90;;;;;;4124672;28;20038;-62
2022/10/27 08:43:38;;;;;;;3.22;1.17;;;20.40;99.90;;;;;;4123783;28;20570;-64
2022/10/27 08:46:01;;;;;;;1.98;1.10;;;20.50;99.90;;;;;;4131505;28;20038;-64
2022/10/27 08:48:03;;;;;;;4.10;0.90;;;20.60;99.90;;;;;;4141715;28;20046;-64
2022/10/27 08:50:15;;;;;;;3.95;1.15;;;20.60;99.90;;;;;;4140920;28;20707;-63
2022/10/27 08:52:37;;;;;;;3.72;1.15;;;20.50;99.90;;;;;;4158078;28;20045;-63
2022/10/27 08:54:41;;;;;;;4.07;1.13;;;20.50;99.90;;;;;;4139270;28;20038;-64
2022/10/27 08:56:42;;;;;;;3.30;1.23;;;20.50;99.90;;;;;;4140216;28;20391;-63
2022/10/27 08:58:47;;;;;;;2.75;1.33;;;20.50;99.90;;;;;;4140402;28;20181;-63
2022/10/27 09:01:03;;;;;;;1.70;0.95;;;20.50;99.90;;;;;;4140364;28;20527;-64
2022/10/27 09:03:28;;;;;;;5.05;1.10;;;20.30;99.90;;;;;;4131484;28;20478;-63
2022/10/27 09:05:59;;;;;;;3.30;0.93;;;20.40;99.90;;;;;;4137991;28;20156;-64
2022/10/27 09:08:18;;;;;;;2.17;0.82;;;20.40;99.90;;;;;;4138722;28;20124;-63
2022/10/27 09:10:27;;;;;;;2.97;1.00;;;20.40;99.90;;;;;;4121265;28;20098;-64
2022/10/27 09:13:04;;;;;;;4.47;1.27;;;20.40;99.90;;;;;;4124847;28;20030;-63
2022/10/27 09:15:41;;;;;;;2.08;1.20;;;20.40;99.90;;;;;;4124114;28;20054;-63
2022/10/27 09:17:47;;;;;;;15.07;1.30;;;20.30;99.90;;;;;;4127396;28;20034;-64
2022/10/27 09:19:54;;;;;;;5.05;1.23;;;20.20;99.90;;;;;;4141331;28;20099;-63
2022/10/27 09:21:55;;;;;;;2.67;1.10;;;20.20;99.90;;;;;;4142173;28;20089;-63
2022/10/27 09:24:04;;;;;;;3.40;1.63;;;20.20;99.90;;;;;;4140961;28;20034;-62
2022/10/27 09:26:06;;;;;;;2.25;1.35;;;20.30;99.90;;;;;;4157567;28;20121;-63
2022/10/27 09:28:32;;;;;;;5.68;1.10;;;20.30;99.90;;;;;;4140473;28;20030;-63
2022/10/27 09:30:35;;;;;;;10.95;1.10;;;20.30;99.90;;;;;;4120747;28;20416;-65
2022/10/27 09:32:39;;;;;;;2.47;1.13;;;20.20;99.90;;;;;;4124731;28;20131;-62
2022/10/27 09:34:45;;;;;;;4.60;1.00;;;20.30;99.90;;;;;;4140570;28;20152;-63
2022/10/27 09:36:45;;;;;;;3.15;1.00;;;20.30;99.90;;;;;;4140942;28;20038;-63
2022/10/27 09:38:47;;;;;;;2.22;0.88;;;20.30;99.90;;;;;;4144556;28;20025;-63
2022/10/27 09:40:47;;;;;;;6.75;1.55;;;20.40;99.90;;;;;;4143062;28;20022;-65
2022/10/27 09:42:54;;;;;;;4.88;0.90;;;20.40;99.90;;;;;;4157153;28;20030;-63
2022/10/27 09:44:57;;;;;;;2.83;1.23;;;20.40;99.90;;;;;;4142874;28;20025;-63
2022/10/27 09:46:57;;;;;;;3.88;1.17;;;20.40;99.90;;;;;;4139696;28;20042;-62
2022/10/27 09:49:03;;;;;;;4.70;1.20;;;20.50;99.90;;;;;;4141949;28;20470;-63
2022/10/27 09:51:17;;;;;;;3.30;1.35;;;20.50;99.90;;;;;;4157403;28;20158;-62
2022/10/27 09:53:41;;;;;;;2.63;0.95;;;20.50;99.90;;;;;;4141388;28;20467;-62
2022/10/27 09:55:52;;;;;;;1.98;1.08;;;20.50;99.90;;;;;;4141420;28;20446;-64
2022/10/27 09:57:53;;;;;;;5.15;1.05;;;20.50;99.90;;;;;;4136112;28;20056;-62
2022/10/27 10:00:06;;;;;;;1.73;0.80;;;20.60;99.90;;;;;;4139574;28;20042;-62
2022/10/27 10:02:33;;;;;;;2.10;0.93;;;20.60;99.90;;;;;;4138728;28;20459;-64
2022/10/27 10:04:45;;;;;;;5.57;1.30;;;20.60;99.90;;;;;;4139730;28;20042;-64
2022/10/27 10:07:01;;;;;;;1.30;0.77;;;20.70;99.90;;;;;;4138628;28;20117;-63
2022/10/27 10:09:16;;;;;;;3.50;0.90;;;20.70;99.90;;;;;;4139365;28;20407;-63
2022/10/27 10:11:21;;;;;;;3.58;1.00;;;20.80;99.90;;;;;;4140555;28;20042;-63
2022/10/27 10:13:22;;;;;;;3.33;0.80;;;20.70;99.90;;;;;;4143271;28;20069;-63
2022/10/27 10:15:23;;;;;;;2.45;0.90;;;20.70;99.90;;;;;;4138762;28;20108;-63
2022/10/27 10:17:26;;;;;;;1.60;0.90;;;20.70;99.90;;;;;;4140971;28;20129;-63
2022/10/27 10:19:28;;;;;;;2.38;0.95;;;20.80;99.90;;;;;;4141939;28;20066;-63
2022/10/27 10:21:45;;;;;;;3.28;1.30;;;20.80;99.90;;;;;;4140998;28;20064;-63
2022/10/27 10:23:46;;;;;;;2.33;0.95;;;20.90;99.90;;;;;;4137793;28;20054;-64
2022/10/27 10:25:48;;;;;;;1.38;0.80;;;20.80;99.90;;;;;;4138940;28;20036;-63
2022/10/27 10:28:02;;;;;;;5.40;1.00;;;20.80;99.90;;;;;;4124749;28;20133;-64
2022/10/27 10:30:04;;;;;;;3.72;0.82;;;20.90;99.90;;;;;;4140325;28;20074;-63
2022/10/27 10:32:12;;;;;;;5.60;1.60;;;20.90;99.90;;;;;;4142831;28;20041;-64
2022/10/27 10:34:30;;;;;;;2.05;0.98;;;20.90;99.90;;;;;;4147761;28;20124;-65
2022/10/27 10:36:38;;;;;;;1.55;1.00;;;20.90;99.90;;;;;;4138904;28;20402;-63
2022/10/27 10:38:41;;;;;;;3.38;1.50;;;20.90;99.90;;;;;;4143684;28;20113;-63
2022/10/27 10:40:42;;;;;;;3.72;1.02;;;20.90;99.90;;;;;;4141939;28;20538;-63
2022/10/27 10:42:58;;;;;;;7.60;1.25;;;20.90;99.90;;;;;;4127670;28;20031;-63
2022/10/27 10:45:19;;;;;;;7.05;1.55;;;20.90;99.90;;;;;;4132330;28;20034;-62